sensor_id;sensor_type;location;lat;lon;timestamp;temperature;humidity
37786;DHT22;23625;48.784;9.336;2022-12-29T00:02:13;9.10;99.90
37786;DHT22;23625;48.784;9.336;2022-12-29T00:04:38;9.00;99.90
37786;DHT22;23625;48.784;9.336;2022-12-29T00:07:04;9.00;99.90
37786;DHT22;23625;48.784;9.336;2022-12-29T00:09:30;9.10;99.90
37786;DHT22;23625;48.784;9.336;2022-12-29T00:11:57;9.10;99.90
37786;DHT22;23625;48.784;9.336;2022-12-29T00:14:23;9.10;99.90
37786;DHT22;23625;48.784;9.336;2022-12-29T00:17:07;9.10;99.90
37786;DHT22;23625;48.784;9.336;2022-12-29T00:19:33;9.10;99.90
37786;DHT22;23625;48.784;9.336;2022-12-29T00:22:17;9.10;99.90
37786;DHT22;23625;48.784;9.336;2022-12-29T00:25:02;9.10;99.90
37786;DHT22;23625;48.784;9.336;2022-12-29T00:27:31;9.20;99.90
37786;DHT22;23625;48.784;9.336;2022-12-29T00:30:20;9.20;99.90
37786;DHT22;23625;48.784;9.336;2022-12-29T00:36:24;9.20;99.90
37786;DHT22;23625;48.784;9.336;2022-12-29T00:39:07;9.20;99.90
37786;DHT22;23625;48.784;9.336;2022-12-29T00:41:52;9.30;99.90
37786;DHT22;23625;48.784;9.336;2022-12-29T00:44:36;9.30;99.90
37786;DHT22;23625;48.784;9.336;2022-12-29T00:47:02;9.30;99.90
37786;DHT22;23625;48.784;9.336;2022-12-29T00:49:29;9.30;99.90
37786;DHT22;23625;48.784;9.336;2022-12-29T00:52:09;9.20;99.90
37786;DHT22;23625;48.784;9.336;2022-12-29T00:54:36;9.20;99.90
37786;DHT22;23625;48.784;9.336;2022-12-29T00:57:03;9.20;99.90
37786;DHT22;23625;48.784;9.336;2022-12-29T00:59:29;9.20;99.90
37786;DHT22;23625;48.784;9.336;2022-12-29T01:01:55;9.10;99.90
37786;DHT22;23625;48.784;9.336;2022-12-29T01:04:23;9.10;99.90
37786;DHT22;23625;48.784;9.336;2022-12-29T01:06:49;9.10;99.90
37786;DHT22;23625;48.784;9.336;2022-12-29T01:09:16;9.10;99.90
37786;DHT22;23625;48.784;9.336;2022-12-29T01:12:01;9.20;99.90
37786;DHT22;23625;48.784;9.336;2022-12-29T01:14:27;9.30;99.90
37786;DHT22;23625;48.784;9.336;2022-12-29T01:16:54;9.30;99.90
37786;DHT22;23625;48.784;9.336;2022-12-29T01:19:19;9.30;99.90
37786;DHT22;23625;48.784;9.336;2022-12-29T01:21:46;9.40;99.90
37786;DHT22;23625;48.784;9.336;2022-12-29T01:24:13;9.50;99.90
37786;DHT22;23625;48.784;9.336;2022-12-29T01:26:38;9.60;99.90
37786;DHT22;23625;48.784;9.336;2022-12-29T01:29:04;9.60;99.90
37786;DHT22;23625;48.784;9.336;2022-12-29T01:31:29;9.40;99.90
37786;DHT22;23625;48.784;9.336;2022-12-29T01:33:55;9.50;99.90
37786;DHT22;23625;48.784;9.336;2022-12-29T01:36:21;9.30;99.90
37786;DHT22;23625;48.784;9.336;2022-12-29T01:38:46;9.30;99.90
37786;DHT22;23625;48.784;9.336;2022-12-29T01:41:14;9.20;99.90
37786;DHT22;23625;48.784;9.336;2022-12-29T01:43:55;9.20;99.90
37786;DHT22;23625;48.784;9.336;2022-12-29T01:46:28;9.10;99.90
37786;DHT22;23625;48.784;9.336;2022-12-29T01:51:36;9.00;99.90
37786;DHT22;23625;48.784;9.336;2022-12-29T01:54:08;8.90;99.90
37786;DHT22;23625;48.784;9.336;2022-12-29T01:56:34;8.90;99.90
37786;DHT22;23625;48.784;9.336;2022-12-29T01:59:04;8.90;99.90
37786;DHT22;23625;48.784;9.336;2022-12-29T02:01:32;9.00;99.90
37786;DHT22;23625;48.784;9.336;2022-12-29T02:03:58;9.00;99.90
37786;DHT22;23625;48.784;9.336;2022-12-29T02:06:43;9.00;99.90
37786;DHT22;23625;48.784;9.336;2022-12-29T02:09:11;9.00;99.90
37786;DHT22;23625;48.784;9.336;2022-12-29T02:11:38;9.10;99.90
37786;DHT22;23625;48.784;9.336;2022-12-29T02:14:14;9.20;99.90
37786;DHT22;23625;48.784;9.336;2022-12-29T02:25:12;9.30;99.90
37786;DHT22;23625;48.784;9.336;2022-12-29T02:30:42;9.40;99.90
37786;DHT22;23625;48.784;9.336;2022-12-29T02:41:08;9.50;99.90
37786;DHT22;23625;48.784;9.336;2022-12-29T02:43:48;9.60;99.90
37786;DHT22;23625;48.784;9.336;2022-12-29T02:46:34;9.60;99.90
37786;DHT22;23625;48.784;9.336;2022-12-29T02:49:36;9.70;99.90
37786;DHT22;23625;48.784;9.336;2022-12-29T02:52:21;9.60;99.90
37786;DHT22;23625;48.784;9.336;2022-12-29T02:54:49;9.70;99.90
37786;DHT22;23625;48.784;9.336;2022-12-29T02:57:28;9.60;99.90
37786;DHT22;23625;48.784;9.336;2022-12-29T03:00:21;9.70;99.90
37786;DHT22;23625;48.784;9.336;2022-12-29T03:11:13;9.80;99.90
37786;DHT22;23625;48.784;9.336;2022-12-29T03:14:27;9.80;99.90
37786;DHT22;23625;48.784;9.336;2022-12-29T03:17:35;9.70;99.90
37786;DHT22;23625;48.784;9.336;2022-12-29T03:20:07;9.90;99.90
37786;DHT22;23625;48.784;9.336;2022-12-29T03:22:39;9.80;99.90
37786;DHT22;23625;48.784;9.336;2022-12-29T03:28:02;9.90;99.90
37786;DHT22;23625;48.784;9.336;2022-12-29T03:30:29;9.80;99.90
37786;DHT22;23625;48.784;9.336;2022-12-29T03:32:59;9.80;99.90
37786;DHT22;23625;48.784;9.336;2022-12-29T03:35:28;9.80;99.90
37786;DHT22;23625;48.784;9.336;2022-12-29T03:38:12;9.70;99.90
37786;DHT22;23625;48.784;9.336;2022-12-29T03:40:42;9.60;99.90
37786;DHT22;23625;48.784;9.336;2022-12-29T03:43:09;9.70;99.90
37786;DHT22;23625;48.784;9.336;2022-12-29T03:45:35;9.80;99.90
37786;DHT22;23625;48.784;9.336;2022-12-29T03:48:01;9.90;99.60
37786;DHT22;23625;48.784;9.336;2022-12-29T03:50:26;9.90;99.80
37786;DHT22;23625;48.784;9.336;2022-12-29T03:52:52;9.90;99.90
37786;DHT22;23625;48.784;9.336;2022-12-29T03:55:17;9.80;99.90
37786;DHT22;23625;48.784;9.336;2022-12-29T03:57:43;10.00;99.90
37786;DHT22;23625;48.784;9.336;2022-12-29T04:00:09;9.90;99.70
37786;DHT22;23625;48.784;9.336;2022-12-29T04:02:35;9.90;99.70
37786;DHT22;23625;48.784;9.336;2022-12-29T04:05:00;9.90;99.90
37786;DHT22;23625;48.784;9.336;2022-12-29T04:07:26;10.10;99.50
37786;DHT22;23625;48.784;9.336;2022-12-29T04:09:51;10.10;99.30
37786;DHT22;23625;48.784;9.336;2022-12-29T04:12:17;10.10;99.30
37786;DHT22;23625;48.784;9.336;2022-12-29T04:14:43;10.20;98.90
37786;DHT22;23625;48.784;9.336;2022-12-29T04:17:08;10.30;98.60
37786;DHT22;23625;48.784;9.336;2022-12-29T04:19:34;10.30;98.00
37786;DHT22;23625;48.784;9.336;2022-12-29T04:21:59;10.30;98.30
37786;DHT22;23625;48.784;9.336;2022-12-29T04:24:25;10.30;98.50
37786;DHT22;23625;48.784;9.336;2022-12-29T04:26:50;10.30;98.80
37786;DHT22;23625;48.784;9.336;2022-12-29T04:29:16;10.20;99.10
37786;DHT22;23625;48.784;9.336;2022-12-29T04:31:42;10.20;98.70
37786;DHT22;23625;48.784;9.336;2022-12-29T04:34:07;10.40;97.80
37786;DHT22;23625;48.784;9.336;2022-12-29T04:36:33;10.30;98.30
37786;DHT22;23625;48.784;9.336;2022-12-29T04:38:58;10.40;98.50
37786;DHT22;23625;48.784;9.336;2022-12-29T04:41:24;10.30;99.00
37786;DHT22;23625;48.784;9.336;2022-12-29T04:43:50;10.40;99.20
37786;DHT22;23625;48.784;9.336;2022-12-29T04:46:16;10.40;99.50
37786;DHT22;23625;48.784;9.336;2022-12-29T04:48:42;10.50;99.90
37786;DHT22;23625;48.784;9.336;2022-12-29T04:51:07;10.50;99.90
37786;DHT22;23625;48.784;9.336;2022-12-29T04:53:33;10.60;99.90
37786;DHT22;23625;48.784;9.336;2022-12-29T04:55:58;10.80;99.40
37786;DHT22;23625;48.784;9.336;2022-12-29T04:58:24;10.80;99.30
37786;DHT22;23625;48.784;9.336;2022-12-29T05:00:51;10.90;98.50
37786;DHT22;23625;48.784;9.336;2022-12-29T05:03:16;10.80;99.10
37786;DHT22;23625;48.784;9.336;2022-12-29T05:05:42;10.90;98.90
37786;DHT22;23625;48.784;9.336;2022-12-29T05:08:08;10.90;98.80
37786;DHT22;23625;48.784;9.336;2022-12-29T05:10:33;11.00;98.20
37786;DHT22;23625;48.784;9.336;2022-12-29T05:12:59;10.90;98.70
37786;DHT22;23625;48.784;9.336;2022-12-29T05:15:25;10.80;99.30
37786;DHT22;23625;48.784;9.336;2022-12-29T05:17:50;10.80;99.70
37786;DHT22;23625;48.784;9.336;2022-12-29T05:20:16;10.70;99.70
37786;DHT22;23625;48.784;9.336;2022-12-29T05:22:42;10.70;99.90
37786;DHT22;23625;48.784;9.336;2022-12-29T05:25:08;10.60;99.90
37786;DHT22;23625;48.784;9.336;2022-12-29T05:27:34;10.50;99.90
37786;DHT22;23625;48.784;9.336;2022-12-29T05:29:59;10.40;99.90
37786;DHT22;23625;48.784;9.336;2022-12-29T05:32:25;10.40;99.90
37786;DHT22;23625;48.784;9.336;2022-12-29T05:34:50;10.40;99.90
37786;DHT22;23625;48.784;9.336;2022-12-29T05:37:16;10.50;99.90
37786;DHT22;23625;48.784;9.336;2022-12-29T05:39:42;10.60;98.70
37786;DHT22;23625;48.784;9.336;2022-12-29T05:42:07;10.70;98.10
37786;DHT22;23625;48.784;9.336;2022-12-29T05:44:33;10.80;98.30
37786;DHT22;23625;48.784;9.336;2022-12-29T05:46:58;10.80;98.40
37786;DHT22;23625;48.784;9.336;2022-12-29T05:49:24;10.80;97.70
37786;DHT22;23625;48.784;9.336;2022-12-29T05:51:49;10.80;97.90
37786;DHT22;23625;48.784;9.336;2022-12-29T05:54:15;10.80;97.60
37786;DHT22;23625;48.784;9.336;2022-12-29T05:56:41;10.80;97.50
37786;DHT22;23625;48.784;9.336;2022-12-29T05:59:06;10.80;97.20
37786;DHT22;23625;48.784;9.336;2022-12-29T06:01:32;10.80;97.30
37786;DHT22;23625;48.784;9.336;2022-12-29T06:03:59;10.80;96.70
37786;DHT22;23625;48.784;9.336;2022-12-29T06:06:25;10.80;96.10
37786;DHT22;23625;48.784;9.336;2022-12-29T06:08:51;10.80;96.30
37786;DHT22;23625;48.784;9.336;2022-12-29T06:11:16;10.80;95.30
37786;DHT22;23625;48.784;9.336;2022-12-29T06:13:42;10.80;94.70
37786;DHT22;23625;48.784;9.336;2022-12-29T06:16:08;10.90;94.00
37786;DHT22;23625;48.784;9.336;2022-12-29T06:18:33;11.00;93.30
37786;DHT22;23625;48.784;9.336;2022-12-29T06:21:03;11.00;92.60
37786;DHT22;23625;48.784;9.336;2022-12-29T06:23:30;11.10;92.60
37786;DHT22;23625;48.784;9.336;2022-12-29T06:25:55;11.10;93.00
37786;DHT22;23625;48.784;9.336;2022-12-29T06:28:21;11.10;92.60
37786;DHT22;23625;48.784;9.336;2022-12-29T06:30:48;11.10;93.40
37786;DHT22;23625;48.784;9.336;2022-12-29T06:33:14;11.10;93.20
37786;DHT22;23625;48.784;9.336;2022-12-29T06:35:42;11.10;92.30
37786;DHT22;23625;48.784;9.336;2022-12-29T06:38:07;11.10;93.00
37786;DHT22;23625;48.784;9.336;2022-12-29T06:40:33;11.00;92.80
37786;DHT22;23625;48.784;9.336;2022-12-29T06:42:58;11.00;92.50
37786;DHT22;23625;48.784;9.336;2022-12-29T06:45:24;11.00;92.70
37786;DHT22;23625;48.784;9.336;2022-12-29T06:47:49;10.90;92.90
37786;DHT22;23625;48.784;9.336;2022-12-29T06:50:15;10.90;93.70
37786;DHT22;23625;48.784;9.336;2022-12-29T06:52:41;11.00;93.40
37786;DHT22;23625;48.784;9.336;2022-12-29T06:55:07;10.90;93.50
37786;DHT22;23625;48.784;9.336;2022-12-29T06:57:32;11.00;93.20
37786;DHT22;23625;48.784;9.336;2022-12-29T06:59:58;11.00;93.50
37786;DHT22;23625;48.784;9.336;2022-12-29T07:02:23;11.00;93.90
37786;DHT22;23625;48.784;9.336;2022-12-29T07:04:51;10.90;94.10
37786;DHT22;23625;48.784;9.336;2022-12-29T07:07:18;11.00;93.80
37786;DHT22;23625;48.784;9.336;2022-12-29T07:09:44;11.10;94.20
37786;DHT22;23625;48.784;9.336;2022-12-29T07:12:10;11.10;93.60
37786;DHT22;23625;48.784;9.336;2022-12-29T07:14:36;11.20;94.10
37786;DHT22;23625;48.784;9.336;2022-12-29T07:17:02;11.10;94.30
37786;DHT22;23625;48.784;9.336;2022-12-29T07:19:30;11.10;95.00
37786;DHT22;23625;48.784;9.336;2022-12-29T07:21:56;11.00;94.80
37786;DHT22;23625;48.784;9.336;2022-12-29T07:24:25;11.00;95.10
37786;DHT22;23625;48.784;9.336;2022-12-29T07:26:53;11.00;95.10
37786;DHT22;23625;48.784;9.336;2022-12-29T07:29:19;11.00;95.50
37786;DHT22;23625;48.784;9.336;2022-12-29T07:31:44;11.00;96.30
37786;DHT22;23625;48.784;9.336;2022-12-29T07:34:10;11.00;96.00
37786;DHT22;23625;48.784;9.336;2022-12-29T07:36:36;10.90;96.00
37786;DHT22;23625;48.784;9.336;2022-12-29T07:39:02;10.90;97.00
37786;DHT22;23625;48.784;9.336;2022-12-29T07:41:28;10.80;97.50
37786;DHT22;23625;48.784;9.336;2022-12-29T07:43:53;10.80;97.50
37786;DHT22;23625;48.784;9.336;2022-12-29T07:46:19;10.90;96.80
37786;DHT22;23625;48.784;9.336;2022-12-29T07:48:44;10.80;97.60
37786;DHT22;23625;48.784;9.336;2022-12-29T07:51:10;10.80;98.50
37786;DHT22;23625;48.784;9.336;2022-12-29T07:53:36;10.80;98.60
37786;DHT22;23625;48.784;9.336;2022-12-29T07:56:02;10.80;98.80
37786;DHT22;23625;48.784;9.336;2022-12-29T07:58:27;10.90;98.20
37786;DHT22;23625;48.784;9.336;2022-12-29T08:00:56;10.90;98.10
37786;DHT22;23625;48.784;9.336;2022-12-29T08:03:22;10.90;99.60
37786;DHT22;23625;48.784;9.336;2022-12-29T08:05:49;10.90;99.10
37786;DHT22;23625;48.784;9.336;2022-12-29T08:08:14;11.00;99.60
37786;DHT22;23625;48.784;9.336;2022-12-29T08:10:40;11.10;98.30
37786;DHT22;23625;48.784;9.336;2022-12-29T08:13:06;11.20;98.50
37786;DHT22;23625;48.784;9.336;2022-12-29T08:15:31;11.20;98.10
37786;DHT22;23625;48.784;9.336;2022-12-29T08:17:57;11.20;98.80
37786;DHT22;23625;48.784;9.336;2022-12-29T08:20:22;11.20;99.00
37786;DHT22;23625;48.784;9.336;2022-12-29T08:22:48;11.20;98.70
37786;DHT22;23625;48.784;9.336;2022-12-29T08:25:14;11.30;97.60
37786;DHT22;23625;48.784;9.336;2022-12-29T08:27:39;11.30;97.50
37786;DHT22;23625;48.784;9.336;2022-12-29T08:30:05;11.30;98.00
37786;DHT22;23625;48.784;9.336;2022-12-29T08:32:31;11.40;97.50
37786;DHT22;23625;48.784;9.336;2022-12-29T08:34:57;11.40;97.60
37786;DHT22;23625;48.784;9.336;2022-12-29T08:37:22;11.40;97.60
37786;DHT22;23625;48.784;9.336;2022-12-29T08:39:48;11.50;97.60
37786;DHT22;23625;48.784;9.336;2022-12-29T08:42:14;11.60;97.10
37786;DHT22;23625;48.784;9.336;2022-12-29T08:44:39;11.60;96.90
37786;DHT22;23625;48.784;9.336;2022-12-29T08:47:05;11.70;97.10
37786;DHT22;23625;48.784;9.336;2022-12-29T08:49:31;11.70;96.90
37786;DHT22;23625;48.784;9.336;2022-12-29T08:51:56;11.80;96.90
37786;DHT22;23625;48.784;9.336;2022-12-29T08:54:22;11.70;96.40
37786;DHT22;23625;48.784;9.336;2022-12-29T08:56:48;11.80;95.70
37786;DHT22;23625;48.784;9.336;2022-12-29T08:59:13;11.90;95.50
37786;DHT22;23625;48.784;9.336;2022-12-29T09:01:39;11.90;95.60
37786;DHT22;23625;48.784;9.336;2022-12-29T09:04:06;11.90;95.60
37786;DHT22;23625;48.784;9.336;2022-12-29T09:06:31;11.90;95.20
37786;DHT22;23625;48.784;9.336;2022-12-29T09:08:57;11.90;93.70
37786;DHT22;23625;48.784;9.336;2022-12-29T09:11:24;12.00;93.70
37786;DHT22;23625;48.784;9.336;2022-12-29T09:13:51;12.10;92.70
37786;DHT22;23625;48.784;9.336;2022-12-29T09:16:18;12.00;92.10
37786;DHT22;23625;48.784;9.336;2022-12-29T09:18:45;12.00;92.60
37786;DHT22;23625;48.784;9.336;2022-12-29T09:21:11;12.00;93.00
37786;DHT22;23625;48.784;9.336;2022-12-29T09:23:37;12.00;93.30
37786;DHT22;23625;48.784;9.336;2022-12-29T09:26:03;12.00;93.10
37786;DHT22;23625;48.784;9.336;2022-12-29T09:28:30;12.10;93.50
37786;DHT22;23625;48.784;9.336;2022-12-29T09:30:56;12.10;92.20
37786;DHT22;23625;48.784;9.336;2022-12-29T09:33:23;12.10;92.00
37786;DHT22;23625;48.784;9.336;2022-12-29T09:35:56;12.20;92.20
37786;DHT22;23625;48.784;9.336;2022-12-29T09:38:23;12.20;90.40
37786;DHT22;23625;48.784;9.336;2022-12-29T09:40:52;12.30;90.20
37786;DHT22;23625;48.784;9.336;2022-12-29T09:46:27;12.40;90.30
37786;DHT22;23625;48.784;9.336;2022-12-29T09:49:13;12.40;88.40
37786;DHT22;23625;48.784;9.336;2022-12-29T09:51:45;12.50;89.20
37786;DHT22;23625;48.784;9.336;2022-12-29T09:54:42;12.50;88.50
37786;DHT22;23625;48.784;9.336;2022-12-29T09:57:36;12.50;88.90
37786;DHT22;23625;48.784;9.336;2022-12-29T10:00:15;12.50;89.30
37786;DHT22;23625;48.784;9.336;2022-12-29T10:08:37;12.80;87.40
37786;DHT22;23625;48.784;9.336;2022-12-29T10:11:26;12.80;89.30
37786;DHT22;23625;48.784;9.336;2022-12-29T10:16:48;12.80;89.10
37786;DHT22;23625;48.784;9.336;2022-12-29T10:22:23;12.90;88.70
37786;DHT22;23625;48.784;9.336;2022-12-29T10:24:52;12.90;87.60
37786;DHT22;23625;48.784;9.336;2022-12-29T10:27:20;12.90;90.00
37786;DHT22;23625;48.784;9.336;2022-12-29T10:29:54;12.90;89.90
37786;DHT22;23625;48.784;9.336;2022-12-29T10:32:34;12.90;89.70
37786;DHT22;23625;48.784;9.336;2022-12-29T10:35:10;12.90;88.20
37786;DHT22;23625;48.784;9.336;2022-12-29T10:40:42;13.00;89.70
37786;DHT22;23625;48.784;9.336;2022-12-29T10:43:27;13.00;90.40
37786;DHT22;23625;48.784;9.336;2022-12-29T10:45:57;13.00;90.90
37786;DHT22;23625;48.784;9.336;2022-12-29T10:48:31;13.00;90.70
37786;DHT22;23625;48.784;9.336;2022-12-29T10:50:58;13.10;90.80
37786;DHT22;23625;48.784;9.336;2022-12-29T10:53:46;13.20;92.10
37786;DHT22;23625;48.784;9.336;2022-12-29T10:56:49;13.40;93.00
37786;DHT22;23625;48.784;9.336;2022-12-29T10:59:20;13.50;90.90
37786;DHT22;23625;48.784;9.336;2022-12-29T11:01:55;13.60;89.20
37786;DHT22;23625;48.784;9.336;2022-12-29T11:04:28;13.80;86.70
37786;DHT22;23625;48.784;9.336;2022-12-29T11:06:58;14.10;85.30
37786;DHT22;23625;48.784;9.336;2022-12-29T11:09:28;14.40;81.60
37786;DHT22;23625;48.784;9.336;2022-12-29T11:11:55;14.70;80.60
37786;DHT22;23625;48.784;9.336;2022-12-29T11:14:29;14.80;79.20
37786;DHT22;23625;48.784;9.336;2022-12-29T11:17:00;14.70;77.20
37786;DHT22;23625;48.784;9.336;2022-12-29T11:19:31;14.60;78.20
37786;DHT22;23625;48.784;9.336;2022-12-29T11:22:27;14.40;78.90
37786;DHT22;23625;48.784;9.336;2022-12-29T11:24:54;14.10;81.70
37786;DHT22;23625;48.784;9.336;2022-12-29T11:27:23;14.00;83.00
37786;DHT22;23625;48.784;9.336;2022-12-29T11:29:51;13.80;84.60
37786;DHT22;23625;48.784;9.336;2022-12-29T11:34:47;13.70;88.20
37786;DHT22;23625;48.784;9.336;2022-12-29T11:37:37;13.70;86.70
37786;DHT22;23625;48.784;9.336;2022-12-29T11:40:19;13.60;89.60
37786;DHT22;23625;48.784;9.336;2022-12-29T11:42:51;13.50;90.90
37786;DHT22;23625;48.784;9.336;2022-12-29T11:47:52;13.40;90.50
37786;DHT22;23625;48.784;9.336;2022-12-29T11:50:24;13.40;91.20
37786;DHT22;23625;48.784;9.336;2022-12-29T11:53:44;13.30;91.70
37786;DHT22;23625;48.784;9.336;2022-12-29T11:56:02;13.30;92.50
37786;DHT22;23625;48.784;9.336;2022-12-29T11:58:34;13.40;93.10
37786;DHT22;23625;48.784;9.336;2022-12-29T12:01:20;13.30;94.70
37786;DHT22;23625;48.784;9.336;2022-12-29T12:04:01;13.30;94.70
37786;DHT22;23625;48.784;9.336;2022-12-29T12:06:32;13.20;95.10
37786;DHT22;23625;48.784;9.336;2022-12-29T12:09:05;13.30;95.00
37786;DHT22;23625;48.784;9.336;2022-12-29T12:11:36;13.20;95.50
37786;DHT22;23625;48.784;9.336;2022-12-29T12:14:23;13.20;95.40
37786;DHT22;23625;48.784;9.336;2022-12-29T12:17:01;13.30;95.50
37786;DHT22;23625;48.784;9.336;2022-12-29T12:22:49;13.30;95.90
37786;DHT22;23625;48.784;9.336;2022-12-29T12:25:29;13.20;96.00
37786;DHT22;23625;48.784;9.336;2022-12-29T12:30:49;13.20;97.10
37786;DHT22;23625;48.784;9.336;2022-12-29T12:33:29;13.20;97.20
37786;DHT22;23625;48.784;9.336;2022-12-29T12:36:31;13.10;97.60
37786;DHT22;23625;48.784;9.336;2022-12-29T12:39:12;13.10;98.30
37786;DHT22;23625;48.784;9.336;2022-12-29T12:47:39;13.00;99.90
37786;DHT22;23625;48.784;9.336;2022-12-29T12:50:24;13.00;99.70
37786;DHT22;23625;48.784;9.336;2022-12-29T12:53:30;13.00;99.90
37786;DHT22;23625;48.784;9.336;2022-12-29T12:56:12;13.10;99.90
37786;DHT22;23625;48.784;9.336;2022-12-29T12:58:54;13.00;99.90
37786;DHT22;23625;48.784;9.336;2022-12-29T13:01:42;12.90;99.90
37786;DHT22;23625;48.784;9.336;2022-12-29T13:12:46;12.90;99.90
37786;DHT22;23625;48.784;9.336;2022-12-29T13:21:24;13.20;99.90
37786;DHT22;23625;48.784;9.336;2022-12-29T13:24:12;13.30;99.90
37786;DHT22;23625;48.784;9.336;2022-12-29T13:32:55;13.40;99.90
37786;DHT22;23625;48.784;9.336;2022-12-29T13:35:52;13.40;99.90
37786;DHT22;23625;48.784;9.336;2022-12-29T13:38:45;13.40;99.90
37786;DHT22;23625;48.784;9.336;2022-12-29T13:41:25;13.30;99.90
37786;DHT22;23625;48.784;9.336;2022-12-29T13:43:53;13.20;99.90
37786;DHT22;23625;48.784;9.336;2022-12-29T13:46:23;13.10;99.90
37786;DHT22;23625;48.784;9.336;2022-12-29T13:51:46;13.00;99.90
37786;DHT22;23625;48.784;9.336;2022-12-29T13:55:00;12.90;99.90
37786;DHT22;23625;48.784;9.336;2022-12-29T14:00:19;12.90;99.90
37786;DHT22;23625;48.784;9.336;2022-12-29T14:07:46;12.90;99.90
37786;DHT22;23625;48.784;9.336;2022-12-29T14:10:45;12.70;99.90
37786;DHT22;23625;48.784;9.336;2022-12-29T14:13:20;12.80;99.90
37786;DHT22;23625;48.784;9.336;2022-12-29T14:15:55;12.80;99.90
37786;DHT22;23625;48.784;9.336;2022-12-29T14:18:25;12.90;99.90
37786;DHT22;23625;48.784;9.336;2022-12-29T14:28:35;12.90;99.90
37786;DHT22;23625;48.784;9.336;2022-12-29T14:36:56;12.70;99.90
37786;DHT22;23625;48.784;9.336;2022-12-29T14:45:00;12.60;99.90
37786;DHT22;23625;48.784;9.336;2022-12-29T14:49:55;12.50;99.90
37786;DHT22;23625;48.784;9.336;2022-12-29T14:52:24;12.50;99.90
37786;DHT22;23625;48.784;9.336;2022-12-29T14:54:58;12.40;99.90
37786;DHT22;23625;48.784;9.336;2022-12-29T14:57:37;12.40;99.90
37786;DHT22;23625;48.784;9.336;2022-12-29T15:00:13;12.40;99.90
37786;DHT22;23625;48.784;9.336;2022-12-29T15:02:45;12.40;99.90
37786;DHT22;23625;48.784;9.336;2022-12-29T15:05:36;12.30;99.90
37786;DHT22;23625;48.784;9.336;2022-12-29T15:08:03;12.30;99.90
37786;DHT22;23625;48.784;9.336;2022-12-29T15:10:37;12.30;99.90
37786;DHT22;23625;48.784;9.336;2022-12-29T15:13:09;12.20;99.90
37786;DHT22;23625;48.784;9.336;2022-12-29T15:15:38;12.10;99.90
37786;DHT22;23625;48.784;9.336;2022-12-29T15:18:24;12.10;99.90
37786;DHT22;23625;48.784;9.336;2022-12-29T15:20:53;12.00;99.90
37786;DHT22;23625;48.784;9.336;2022-12-29T15:23:19;12.10;99.90
37786;DHT22;23625;48.784;9.336;2022-12-29T15:26:00;12.00;99.90
37786;DHT22;23625;48.784;9.336;2022-12-29T15:28:27;11.90;99.90
37786;DHT22;23625;48.784;9.336;2022-12-29T15:31:06;11.90;99.90
37786;DHT22;23625;48.784;9.336;2022-12-29T15:33:38;11.90;99.90
37786;DHT22;23625;48.784;9.336;2022-12-29T15:36:11;11.80;99.90
37786;DHT22;23625;48.784;9.336;2022-12-29T15:38:38;11.70;99.90
37786;DHT22;23625;48.784;9.336;2022-12-29T15:44:40;11.60;99.90
37786;DHT22;23625;48.784;9.336;2022-12-29T15:47:18;11.70;99.90
37786;DHT22;23625;48.784;9.336;2022-12-29T15:49:48;11.70;99.90
37786;DHT22;23625;48.784;9.336;2022-12-29T15:52:21;11.80;99.90
37786;DHT22;23625;48.784;9.336;2022-12-29T15:54:50;11.80;99.90
37786;DHT22;23625;48.784;9.336;2022-12-29T15:57:24;11.80;99.90
37786;DHT22;23625;48.784;9.336;2022-12-29T15:59:50;11.90;99.90
37786;DHT22;23625;48.784;9.336;2022-12-29T16:02:17;11.90;99.90
37786;DHT22;23625;48.784;9.336;2022-12-29T16:04:43;12.00;99.90
37786;DHT22;23625;48.784;9.336;2022-12-29T16:07:31;12.10;99.90
37786;DHT22;23625;48.784;9.336;2022-12-29T16:10:00;12.10;99.90
37786;DHT22;23625;48.784;9.336;2022-12-29T16:12:35;12.00;99.90
37786;DHT22;23625;48.784;9.336;2022-12-29T16:17:31;11.70;99.90
37786;DHT22;23625;48.784;9.336;2022-12-29T16:20:03;11.50;99.90
37786;DHT22;23625;48.784;9.336;2022-12-29T16:22:38;11.50;99.90
37786;DHT22;23625;48.784;9.336;2022-12-29T16:27:53;11.20;99.90
37786;DHT22;23625;48.784;9.336;2022-12-29T16:30:30;11.20;99.90
37786;DHT22;23625;48.784;9.336;2022-12-29T16:32:58;11.20;99.90
37786;DHT22;23625;48.784;9.336;2022-12-29T16:35:28;11.20;99.90
37786;DHT22;23625;48.784;9.336;2022-12-29T16:38:17;11.10;99.90
37786;DHT22;23625;48.784;9.336;2022-12-29T16:41:09;10.90;99.90
37786;DHT22;23625;48.784;9.336;2022-12-29T16:47:04;10.60;99.90
37786;DHT22;23625;48.784;9.336;2022-12-29T16:49:34;10.60;99.90
37786;DHT22;23625;48.784;9.336;2022-12-29T16:52:00;10.50;99.90
37786;DHT22;23625;48.784;9.336;2022-12-29T16:54:35;10.50;99.90
37786;DHT22;23625;48.784;9.336;2022-12-29T16:57:02;10.50;99.90
37786;DHT22;23625;48.784;9.336;2022-12-29T16:59:37;10.60;99.90
37786;DHT22;23625;48.784;9.336;2022-12-29T17:02:14;10.60;99.90
37786;DHT22;23625;48.784;9.336;2022-12-29T17:04:40;10.50;99.90
37786;DHT22;23625;48.784;9.336;2022-12-29T17:07:26;10.50;99.90
37786;DHT22;23625;48.784;9.336;2022-12-29T17:09:52;10.40;99.90
37786;DHT22;23625;48.784;9.336;2022-12-29T17:12:29;10.40;99.90
37786;DHT22;23625;48.784;9.336;2022-12-29T17:17:32;10.30;99.90
37786;DHT22;23625;48.784;9.336;2022-12-29T17:20:05;10.30;99.90
37786;DHT22;23625;48.784;9.336;2022-12-29T17:22:32;10.40;99.90
37786;DHT22;23625;48.784;9.336;2022-12-29T17:25:00;10.40;99.90
37786;DHT22;23625;48.784;9.336;2022-12-29T17:30:10;10.30;99.90
37786;DHT22;23625;48.784;9.336;2022-12-29T17:32:37;10.30;99.90
37786;DHT22;23625;48.784;9.336;2022-12-29T17:35:03;10.20;99.90
37786;DHT22;23625;48.784;9.336;2022-12-29T17:37:36;10.10;99.90
37786;DHT22;23625;48.784;9.336;2022-12-29T17:40:04;10.10;99.90
37786;DHT22;23625;48.784;9.336;2022-12-29T17:42:31;10.00;99.90
37786;DHT22;23625;48.784;9.336;2022-12-29T17:45:00;9.90;99.90
37786;DHT22;23625;48.784;9.336;2022-12-29T17:47:26;9.80;99.90
37786;DHT22;23625;48.784;9.336;2022-12-29T17:49:52;9.80;99.90
37786;DHT22;23625;48.784;9.336;2022-12-29T17:52:18;9.80;99.90
37786;DHT22;23625;48.784;9.336;2022-12-29T17:54:50;9.80;99.90
37786;DHT22;23625;48.784;9.336;2022-12-29T17:57:18;9.80;99.90
37786;DHT22;23625;48.784;9.336;2022-12-29T17:59:43;9.80;99.90
37786;DHT22;23625;48.784;9.336;2022-12-29T18:02:28;9.80;99.90
37786;DHT22;23625;48.784;9.336;2022-12-29T18:04:55;9.70;99.90
37786;DHT22;23625;48.784;9.336;2022-12-29T18:07:21;9.60;99.90
37786;DHT22;23625;48.784;9.336;2022-12-29T18:09:47;9.60;99.90
37786;DHT22;23625;48.784;9.336;2022-12-29T18:12:59;9.60;99.90
37786;DHT22;23625;48.784;9.336;2022-12-29T18:15:28;9.50;99.90
37786;DHT22;23625;48.784;9.336;2022-12-29T18:18:08;9.50;99.90
37786;DHT22;23625;48.784;9.336;2022-12-29T18:20:35;9.50;99.90
37786;DHT22;23625;48.784;9.336;2022-12-29T18:23:01;9.50;99.90